createdAt,value
2023-03-04T00:00:47.890Z,1.70
2023-03-04T00:03:16.425Z,1.57
2023-03-04T00:05:44.923Z,1.43
2023-03-04T00:08:13.231Z,1.97
2023-03-04T00:10:42.898Z,1.43
2023-03-04T00:13:11.215Z,2.03
2023-03-04T00:15:39.493Z,1.97
2023-03-04T00:18:07.875Z,1.43
2023-03-04T00:20:36.187Z,1.90
2023-03-04T00:23:04.499Z,1.70
2023-03-04T00:25:33.625Z,2.23
2023-03-04T00:28:03.406Z,2.33
2023-03-04T00:30:31.688Z,1.77
2023-03-04T00:33:00.006Z,1.30
2023-03-04T00:35:28.410Z,1.77
2023-03-04T00:37:56.807Z,1.40
2023-03-04T00:40:25.138Z,1.80
2023-03-04T00:42:53.396Z,1.90
2023-03-04T00:45:23.034Z,1.33
2023-03-04T00:47:51.372Z,1.73
2023-03-04T00:50:19.694Z,1.83
2023-03-04T00:52:48.005Z,1.87
2023-03-04T00:55:16.289Z,1.73
2023-03-04T00:57:44.572Z,1.73
2023-03-04T01:00:13.507Z,1.20
2023-03-04T01:02:43.167Z,1.20
2023-03-04T01:05:11.743Z,1.03
2023-03-04T01:07:40.108Z,1.83
2023-03-04T01:10:09.005Z,0.87
2023-03-04T01:12:37.288Z,0.80
2023-03-04T01:15:05.878Z,1.27
2023-03-04T01:17:34.184Z,1.13
2023-03-04T01:20:03.910Z,1.10
2023-03-04T01:22:32.224Z,1.27
2023-03-04T01:25:00.500Z,1.57
2023-03-04T01:27:28.821Z,1.30
2023-03-04T01:29:57.120Z,1.10
2023-03-04T01:32:25.443Z,1.00
2023-03-04T01:34:53.754Z,1.20
2023-03-04T01:37:23.475Z,1.23
2023-03-04T01:39:51.724Z,0.90
2023-03-04T01:42:20.449Z,1.00
2023-03-04T01:44:48.763Z,0.93
2023-03-04T01:47:17.172Z,0.90
2023-03-04T01:49:45.463Z,0.83
2023-03-04T01:52:13.835Z,1.27
2023-03-04T01:54:43.481Z,0.87
2023-03-04T01:57:17.453Z,1.13
2023-03-04T01:59:45.748Z,1.00
2023-03-04T02:02:14.040Z,1.40
2023-03-04T02:04:42.494Z,0.93
2023-03-04T02:07:10.875Z,1.27
2023-03-04T02:09:39.249Z,0.50
2023-03-04T02:12:09.060Z,0.87
2023-03-04T02:14:37.380Z,0.50
2023-03-04T02:17:05.710Z,0.83
2023-03-04T02:19:37.982Z,0.80
2023-03-04T02:22:06.310Z,0.90
2023-03-04T02:24:35.464Z,0.73
2023-03-04T02:27:05.164Z,1.03
2023-03-04T02:29:33.466Z,0.90
2023-03-04T02:32:01.840Z,0.70
2023-03-04T02:34:30.810Z,0.50
2023-03-04T02:36:59.100Z,0.97
2023-03-04T02:39:29.431Z,0.73
2023-03-04T02:41:58.006Z,0.77
2023-03-04T02:44:28.179Z,0.70
2023-03-04T02:46:56.709Z,0.70
2023-03-04T02:49:25.251Z,0.70
2023-03-04T02:51:54.108Z,0.80
2023-03-04T02:54:23.011Z,0.50
2023-03-04T02:56:52.529Z,0.43
2023-03-04T02:59:20.947Z,0.70
2023-03-04T03:01:50.655Z,0.70
2023-03-04T03:04:19.029Z,1.10
2023-03-04T03:06:47.311Z,0.60
2023-03-04T03:09:15.573Z,0.77
2023-03-04T03:11:43.925Z,0.60
2023-03-04T03:14:12.208Z,0.43
2023-03-04T03:16:40.508Z,0.63
2023-03-04T03:19:10.218Z,0.70
2023-03-04T03:21:38.495Z,0.60
2023-03-04T03:24:06.878Z,0.60
2023-03-04T03:26:35.195Z,0.70
2023-03-04T03:29:03.542Z,0.87
2023-03-04T03:31:31.908Z,0.43
2023-03-04T03:34:00.290Z,0.43
2023-03-04T03:36:29.966Z,0.80
2023-03-04T03:38:58.388Z,0.60
2023-03-04T03:41:26.703Z,0.43
2023-03-04T03:43:55.035Z,0.80
2023-03-04T03:46:23.309Z,0.57
2023-03-04T03:48:51.639Z,0.50
2023-03-04T03:51:19.893Z,0.50
2023-03-04T03:53:49.537Z,1.00
2023-03-04T03:56:17.831Z,0.80
2023-03-04T03:58:46.096Z,0.70
2023-03-04T04:01:14.377Z,0.90
2023-03-04T04:03:42.660Z,0.40
2023-03-04T04:06:10.935Z,0.50
2023-03-04T04:08:39.215Z,0.70
2023-03-04T04:11:10.881Z,1.00
2023-03-04T04:13:39.419Z,0.57
2023-03-04T04:16:08.343Z,0.43
2023-03-04T04:18:36.709Z,0.97
2023-03-04T04:21:04.998Z,0.50
2023-03-04T04:23:33.303Z,0.50
2023-03-04T04:26:01.669Z,0.67
2023-03-04T04:28:31.322Z,0.50
2023-03-04T04:30:59.617Z,0.50
2023-03-04T04:33:27.981Z,0.73
2023-03-04T04:35:56.291Z,0.40
2023-03-04T04:38:25.885Z,0.70
2023-03-04T04:40:54.230Z,0.53
2023-03-04T04:43:22.541Z,0.30
2023-03-04T04:45:52.432Z,0.60
2023-03-04T04:48:20.782Z,0.77
2023-03-04T04:50:49.050Z,0.40
2023-03-04T04:53:17.382Z,0.30
2023-03-04T04:55:45.744Z,0.57
2023-03-04T04:58:14.006Z,0.30
2023-03-04T05:00:42.268Z,0.40
2023-03-04T05:03:11.958Z,0.27
2023-03-04T05:05:40.260Z,0.40
2023-03-04T05:08:08.577Z,0.50
2023-03-04T05:10:36.936Z,0.40
2023-03-04T05:13:05.207Z,0.60
2023-03-04T05:15:33.584Z,0.30
2023-03-04T05:18:01.893Z,0.50
2023-03-04T05:20:31.498Z,0.80
2023-03-04T05:22:59.888Z,0.63
2023-03-04T05:25:28.205Z,0.70
2023-03-04T05:27:56.459Z,0.60
2023-03-04T05:30:24.801Z,0.90
2023-03-04T05:32:53.090Z,0.63
2023-03-04T05:35:21.412Z,0.70
2023-03-04T05:37:51.156Z,0.70
2023-03-04T05:40:19.525Z,0.40
2023-03-04T05:42:47.837Z,0.70
2023-03-04T05:45:16.153Z,0.90
2023-03-04T05:47:44.465Z,1.10
2023-03-04T05:50:13.400Z,1.07
2023-03-04T05:52:41.744Z,0.50
2023-03-04T05:55:11.972Z,0.40
2023-03-04T05:57:40.256Z,0.90
2023-03-04T06:00:09.380Z,0.90
2023-03-04T06:02:37.713Z,0.50
2023-03-04T06:05:06.295Z,0.90
2023-03-04T06:07:34.576Z,0.77
2023-03-04T06:10:02.860Z,0.90
2023-03-04T06:12:32.554Z,0.60
2023-03-04T06:15:00.886Z,0.63
2023-03-04T06:17:29.186Z,0.60
2023-03-04T06:19:57.479Z,0.37
2023-03-04T06:22:25.825Z,0.83
2023-03-04T06:24:54.157Z,0.80
2023-03-04T06:27:22.434Z,0.50
2023-03-04T06:29:52.176Z,0.97
2023-03-04T06:32:20.521Z,0.70
2023-03-04T06:34:48.825Z,0.60
2023-03-04T06:37:17.200Z,0.70
2023-03-04T06:39:45.722Z,0.60
2023-03-04T06:42:14.187Z,0.43
2023-03-04T06:44:42.476Z,0.70
2023-03-04T06:47:12.121Z,0.77
2023-03-04T06:49:40.415Z,0.60
2023-03-04T06:52:11.234Z,0.83
2023-03-04T06:54:39.531Z,0.97
2023-03-04T06:57:07.929Z,0.53
2023-03-04T06:59:36.282Z,0.93
2023-03-04T07:02:04.557Z,0.77
2023-03-04T07:04:34.192Z,0.20
2023-03-04T07:07:02.514Z,0.30
2023-03-04T07:09:30.882Z,0.50
2023-03-04T07:11:59.177Z,0.57
2023-03-04T07:14:27.944Z,0.40
2023-03-04T07:16:56.309Z,0.60
2023-03-04T07:19:24.631Z,0.20
2023-03-04T07:21:54.350Z,0.37
2023-03-04T07:24:22.617Z,0.63
2023-03-04T07:26:50.945Z,0.40
2023-03-04T07:29:19.427Z,0.40
2023-03-04T07:31:47.784Z,0.40
2023-03-04T07:34:16.227Z,0.50
2023-03-04T07:36:44.583Z,0.67
2023-03-04T07:39:14.404Z,0.40
2023-03-04T07:41:42.697Z,0.33
2023-03-04T07:44:13.091Z,0.50
2023-03-04T07:46:41.598Z,0.40
2023-03-04T07:49:09.926Z,0.50
2023-03-04T07:51:38.253Z,0.40
2023-03-04T07:54:06.582Z,0.33
2023-03-04T07:56:36.304Z,0.33
2023-03-04T07:59:04.684Z,0.40
2023-03-04T08:01:33.662Z,0.10
2023-03-04T08:04:01.995Z,0.43
2023-03-04T08:06:30.294Z,0.30
2023-03-04T08:08:58.945Z,0.40
2023-03-04T08:11:27.279Z,0.70
2023-03-04T08:13:56.993Z,0.20
2023-03-04T08:16:25.515Z,0.20
2023-03-04T08:18:54.855Z,0.40
2023-03-04T08:21:23.435Z,0.43
2023-03-04T08:23:51.807Z,0.30
2023-03-04T08:26:20.937Z,0.30
2023-03-04T08:28:49.404Z,0.20
2023-03-04T08:31:19.433Z,0.40
2023-03-04T08:33:47.878Z,0.40
2023-03-04T08:36:16.300Z,0.30
2023-03-04T08:38:44.633Z,0.13
2023-03-04T08:41:12.954Z,0.10
2023-03-04T08:43:41.282Z,0.30
2023-03-04T08:46:09.657Z,0.20
2023-03-04T08:48:39.879Z,0.30
2023-03-04T08:51:11.435Z,0.47
2023-03-04T08:53:39.739Z,0.27
2023-03-04T08:56:08.736Z,0.10
2023-03-04T08:58:37.054Z,0.20
2023-03-04T09:01:05.397Z,0.10
2023-03-04T09:03:33.728Z,0.40
2023-03-04T09:06:03.577Z,0.30
2023-03-04T09:08:31.896Z,0.27
2023-03-04T09:11:00.213Z,0.10
2023-03-04T09:13:29.869Z,0.30
2023-03-04T09:15:58.267Z,0.40
2023-03-04T09:18:27.073Z,0.20
2023-03-04T09:20:55.463Z,0.40
2023-03-04T09:23:25.123Z,0.20
2023-03-04T09:25:53.446Z,0.20
2023-03-04T09:28:21.768Z,0.20
2023-03-04T09:30:50.050Z,1.00
2023-03-04T09:33:18.454Z,0.63
2023-03-04T09:35:48.913Z,0.20
2023-03-04T09:38:17.303Z,0.20
2023-03-04T09:40:47.537Z,0.23
2023-03-04T09:43:19.738Z,0.10
2023-03-04T09:45:49.179Z,0.10
2023-03-04T09:48:18.229Z,0.10
2023-03-04T09:50:48.539Z,0.20
2023-03-04T09:53:20.010Z,0.10
2023-03-04T09:55:50.991Z,0.20
2023-03-04T09:58:23.941Z,0.20
2023-03-04T10:00:54.061Z,0.13
2023-03-04T10:03:22.613Z,0.30
2023-03-04T10:05:52.641Z,0.20
2023-03-04T10:08:29.216Z,0.30
2023-03-04T10:10:59.866Z,0.30
2023-03-04T10:13:32.260Z,0.20
2023-03-04T10:16:00.616Z,0.20
2023-03-04T10:18:29.634Z,0.10
2023-03-04T10:20:58.711Z,0.10
2023-03-04T10:23:27.191Z,0.20
2023-03-04T10:25:55.550Z,0.30
2023-03-04T10:28:27.019Z,0.17
2023-03-04T10:30:57.141Z,0.30
2023-03-04T10:33:26.341Z,0.20
2023-03-04T10:35:55.438Z,0.10
2023-03-04T10:38:23.755Z,0.10
2023-03-04T10:40:52.049Z,0.13
2023-03-04T10:43:20.465Z,0.20
2023-03-04T10:45:50.752Z,0.23
2023-03-04T10:48:19.855Z,0.20
2023-03-04T10:50:48.157Z,0.10
2023-03-04T10:53:34.470Z,0.20
2023-03-04T10:56:03.172Z,0.33
2023-03-04T10:58:31.588Z,0.20
2023-03-04T11:01:05.477Z,0.27
2023-03-04T11:03:34.812Z,0.20
2023-03-04T11:06:09.776Z,0.50
2023-03-04T11:08:38.060Z,0.43
2023-03-04T11:11:12.638Z,0.27
2023-03-04T11:13:40.929Z,0.20
2023-03-04T11:16:23.896Z,0.20
2023-03-04T11:18:52.588Z,0.60
2023-03-04T11:21:21.679Z,0.20
2023-03-04T11:23:51.558Z,0.20
2023-03-04T11:26:20.433Z,0.20
2023-03-04T11:28:49.166Z,0.50
2023-03-04T11:31:19.882Z,0.40
2023-03-04T11:33:49.033Z,0.83
2023-03-04T11:36:23.921Z,1.10
2023-03-04T11:38:52.492Z,1.07
2023-03-04T11:41:22.583Z,0.70
2023-03-04T11:43:50.977Z,1.10
2023-03-04T11:46:31.671Z,0.67
2023-03-04T11:49:03.473Z,0.83
2023-03-04T11:51:33.524Z,0.87
2023-03-04T11:54:05.067Z,0.93
2023-03-04T11:56:33.987Z,0.70
2023-03-04T11:59:08.690Z,1.20
2023-03-04T12:01:39.729Z,0.97
2023-03-04T12:04:29.716Z,0.93
2023-03-04T12:07:01.901Z,0.83
2023-03-04T12:09:33.338Z,0.47
2023-03-04T12:12:04.567Z,0.47
2023-03-04T12:14:33.362Z,0.50
2023-03-04T12:17:20.376Z,0.40
2023-03-04T12:19:53.257Z,0.33
2023-03-04T12:22:28.344Z,0.30
2023-03-04T12:25:01.990Z,0.50
2023-03-04T12:27:32.250Z,0.37
2023-03-04T12:30:05.504Z,0.50
2023-03-04T12:32:36.758Z,0.50
2023-03-04T12:35:10.321Z,0.23
2023-03-04T12:37:47.537Z,0.60
2023-03-04T12:40:29.144Z,0.40
2023-03-04T12:43:02.598Z,0.47
2023-03-04T12:45:32.620Z,0.37
2023-03-04T12:48:02.274Z,0.37
2023-03-04T12:50:36.849Z,0.30
2023-03-04T12:53:09.636Z,0.63
2023-03-04T12:55:38.674Z,0.10
2023-03-04T12:58:07.252Z,0.30
2023-03-04T13:00:37.433Z,0.27
2023-03-04T13:03:08.958Z,0.50
2023-03-04T13:05:46.289Z,0.57
2023-03-04T13:08:17.477Z,0.93
2023-03-04T13:10:45.808Z,0.50
2023-03-04T13:13:29.006Z,0.30
2023-03-04T13:16:03.257Z,0.30
2023-03-04T13:18:35.627Z,0.33
2023-03-04T13:21:09.459Z,0.50
2023-03-04T13:23:37.782Z,0.40
2023-03-04T13:26:21.996Z,0.33
2023-03-04T13:28:54.664Z,0.50
2023-03-04T13:31:24.416Z,0.37
2023-03-04T13:33:59.392Z,0.27
2023-03-04T13:36:29.802Z,0.30
2023-03-04T13:39:01.527Z,0.40
2023-03-04T13:41:33.295Z,0.13
2023-03-04T13:44:01.698Z,0.17
2023-03-04T13:46:41.043Z,0.13
2023-03-04T13:49:09.722Z,0.20
2023-03-04T13:51:41.474Z,0.20
2023-03-04T13:54:10.051Z,0.20
2023-03-04T13:56:38.470Z,0.20
2023-03-04T13:59:25.902Z,0.20
2023-03-04T14:01:57.316Z,0.20
2023-03-04T14:04:26.397Z,0.30
2023-03-04T14:06:58.158Z,0.30
2023-03-04T14:09:27.096Z,0.20
2023-03-04T14:11:55.921Z,0.60
2023-03-04T14:14:24.780Z,0.20
2023-03-04T14:16:54.054Z,0.37
2023-03-04T14:19:24.537Z,0.37
2023-03-04T14:21:52.848Z,0.27
2023-03-04T14:24:22.603Z,0.40
2023-03-04T14:26:50.964Z,0.30
2023-03-04T14:29:23.220Z,0.20
2023-03-04T14:31:51.674Z,0.10
2023-03-04T14:34:22.239Z,0.20
2023-03-04T14:36:50.600Z,0.53
2023-03-04T14:39:18.937Z,0.50
2023-03-04T14:41:49.092Z,0.50
2023-03-04T14:44:19.716Z,0.40
2023-03-04T14:47:04.605Z,0.50
2023-03-04T14:49:35.195Z,0.30
2023-03-04T14:52:03.489Z,0.70
2023-03-04T14:54:36.054Z,0.40
2023-03-04T14:57:23.930Z,0.40
2023-03-04T14:59:53.084Z,0.17
2023-03-04T15:02:33.183Z,0.40
2023-03-04T15:05:02.169Z,0.30
2023-03-04T15:07:32.348Z,0.30
2023-03-04T15:10:00.650Z,0.63
2023-03-04T15:12:30.693Z,0.33
2023-03-04T15:14:59.524Z,0.40
2023-03-04T15:17:29.553Z,0.40
2023-03-04T15:20:01.286Z,0.23
2023-03-04T15:22:29.609Z,0.47
2023-03-04T15:24:57.917Z,0.50
2023-03-04T15:27:28.242Z,0.40
2023-03-04T15:29:59.228Z,0.30
2023-03-04T15:32:27.708Z,0.30
2023-03-04T15:34:56.117Z,0.47
2023-03-04T15:37:25.235Z,0.40
2023-03-04T15:39:53.567Z,0.30
2023-03-04T15:42:21.883Z,0.60
2023-03-04T15:44:50.189Z,0.37
2023-03-04T15:47:19.900Z,0.50
2023-03-04T15:49:48.166Z,0.30
2023-03-04T15:52:17.517Z,0.20
2023-03-04T15:54:45.951Z,0.20
2023-03-04T15:57:17.210Z,0.40
2023-03-04T15:59:45.655Z,0.40
2023-03-04T16:02:13.954Z,0.10
2023-03-04T16:04:44.090Z,0.40
2023-03-04T16:07:13.013Z,0.30
2023-03-04T16:09:41.305Z,0.37
2023-03-04T16:12:10.617Z,0.40
2023-03-04T16:14:38.896Z,0.40
2023-03-04T16:17:08.212Z,0.30
2023-03-04T16:19:36.788Z,0.60
2023-03-04T16:22:06.517Z,0.53
2023-03-04T16:24:35.007Z,0.30
2023-03-04T16:27:05.901Z,0.53
2023-03-04T16:29:34.577Z,0.20
2023-03-04T16:32:02.943Z,0.30
2023-03-04T16:34:31.888Z,0.23
2023-03-04T16:37:00.222Z,0.40
2023-03-04T16:39:29.869Z,0.20
2023-03-04T16:41:58.182Z,0.30
2023-03-04T16:44:26.585Z,0.27
2023-03-04T16:46:54.893Z,0.17
2023-03-04T16:49:23.196Z,0.30
2023-03-04T16:51:51.964Z,0.40
2023-03-04T16:54:20.656Z,0.50
2023-03-04T16:56:50.418Z,0.50
2023-03-04T16:59:18.785Z,0.20
2023-03-04T17:01:47.094Z,0.30
2023-03-04T17:04:15.421Z,0.20
2023-03-04T17:06:43.738Z,0.20
2023-03-04T17:09:12.060Z,0.33
2023-03-04T17:11:40.478Z,0.30
2023-03-04T17:14:10.175Z,0.50
2023-03-04T17:16:38.471Z,0.10
2023-03-04T17:19:06.799Z,0.30
2023-03-04T17:21:35.109Z,0.20
2023-03-04T17:24:04.014Z,0.20
2023-03-04T17:26:32.959Z,0.30
2023-03-04T17:29:01.273Z,0.40
2023-03-04T17:31:31.015Z,0.90
2023-03-04T17:33:59.401Z,0.17
2023-03-04T17:36:27.723Z,0.30
2023-03-04T17:38:55.977Z,0.50
2023-03-04T17:41:24.962Z,0.27
2023-03-04T17:43:54.554Z,0.30
2023-03-04T17:46:23.331Z,0.70
2023-03-04T17:48:55.206Z,0.37
2023-03-04T17:51:23.490Z,0.40
2023-03-04T17:53:51.777Z,0.33
2023-03-04T17:56:20.107Z,0.83
2023-03-04T17:58:50.137Z,0.40
2023-03-04T18:01:19.413Z,0.30
2023-03-04T18:03:47.786Z,0.47
2023-03-04T18:06:18.375Z,0.23
2023-03-04T18:08:46.673Z,0.50
2023-03-04T18:11:14.940Z,0.47
2023-03-04T18:13:43.345Z,0.40
2023-03-04T18:16:12.037Z,0.20
2023-03-04T18:18:40.338Z,0.60
2023-03-04T18:21:08.650Z,0.27
2023-03-04T18:23:38.377Z,0.40
2023-03-04T18:26:06.698Z,0.30
2023-03-04T18:28:35.009Z,0.40
2023-03-04T18:31:03.374Z,0.40
2023-03-04T18:33:32.074Z,0.70
2023-03-04T18:36:00.668Z,0.30
2023-03-04T18:38:29.029Z,0.53
2023-03-04T18:41:00.926Z,0.30
2023-03-04T18:43:29.318Z,0.30
2023-03-04T18:46:01.531Z,0.20
2023-03-04T18:48:29.915Z,0.40
2023-03-04T18:50:58.977Z,0.50
2023-03-04T18:53:28.197Z,0.20
2023-03-04T18:56:00.143Z,0.30
2023-03-04T18:58:29.889Z,0.50
2023-03-04T19:00:58.230Z,0.30
2023-03-04T19:03:26.670Z,0.50
2023-03-04T19:05:56.184Z,0.50
2023-03-04T19:08:24.445Z,0.20
2023-03-04T19:10:52.726Z,0.57
2023-03-04T19:13:22.678Z,0.60
2023-03-04T19:15:52.643Z,0.47
2023-03-04T19:18:20.942Z,0.37
2023-03-04T19:20:49.221Z,0.50
2023-03-04T19:23:17.542Z,0.50
2023-03-04T19:25:45.830Z,0.30
2023-03-04T19:28:14.080Z,0.63
2023-03-04T19:30:42.536Z,0.90
2023-03-04T19:33:12.229Z,0.43
2023-03-04T19:35:42.517Z,0.20
2023-03-04T19:38:10.916Z,0.30
2023-03-04T19:40:40.364Z,0.70
2023-03-04T19:43:08.685Z,0.33
2023-03-04T19:45:37.086Z,0.30
2023-03-04T19:48:05.585Z,0.30
2023-03-04T19:50:35.279Z,0.53
2023-03-04T19:53:03.590Z,0.30
2023-03-04T19:55:31.925Z,0.67
2023-03-04T19:58:00.270Z,0.33
2023-03-04T20:00:28.608Z,0.40
2023-03-04T20:02:56.907Z,0.40
2023-03-04T20:05:25.246Z,0.40
2023-03-04T20:07:54.889Z,0.40
2023-03-04T20:10:23.196Z,0.40
2023-03-04T20:12:52.766Z,0.40
2023-03-04T20:15:21.165Z,0.40
2023-03-04T20:17:49.446Z,0.57
2023-03-04T20:20:17.868Z,0.80
2023-03-04T20:22:46.201Z,0.50
2023-03-04T20:25:15.913Z,0.53
2023-03-04T20:27:44.193Z,0.60
2023-03-04T20:30:13.208Z,0.40
2023-03-04T20:32:41.661Z,0.43
2023-03-04T20:35:14.116Z,0.50
2023-03-04T20:37:42.517Z,0.50
2023-03-04T20:40:11.601Z,0.40
2023-03-04T20:42:42.198Z,0.50
2023-03-04T20:45:10.925Z,0.77
2023-03-04T20:47:39.798Z,0.30
2023-03-04T20:50:08.573Z,0.40
2023-03-04T20:52:36.930Z,0.40
2023-03-04T20:55:05.277Z,0.50
2023-03-04T20:57:33.747Z,0.57
2023-03-04T21:00:03.424Z,0.20
2023-03-04T21:02:31.748Z,0.30
2023-03-04T21:05:01.350Z,0.50
2023-03-04T21:07:29.718Z,0.50
2023-03-04T21:09:58.057Z,0.20
2023-03-04T21:12:26.661Z,0.30
2023-03-04T21:14:54.992Z,0.60
2023-03-04T21:17:25.214Z,0.57
2023-03-04T21:19:53.609Z,0.30
2023-03-04T21:22:21.973Z,0.40
2023-03-04T21:24:50.302Z,0.43
2023-03-04T21:27:18.658Z,0.30
2023-03-04T21:29:49.593Z,0.57
2023-03-04T21:32:24.725Z,0.50
2023-03-04T21:34:54.864Z,0.43
2023-03-04T21:37:23.780Z,0.53
2023-03-04T21:39:52.273Z,0.50
2023-03-04T21:42:20.644Z,0.40
2023-03-04T21:44:51.400Z,0.37
2023-03-04T21:47:20.250Z,0.20
2023-03-04T21:49:48.571Z,0.40
2023-03-04T21:52:18.727Z,0.63
2023-03-04T21:54:47.692Z,0.40
2023-03-04T21:57:16.059Z,0.60
2023-03-04T21:59:44.423Z,0.30
2023-03-04T22:02:14.233Z,0.50
2023-03-04T22:04:42.560Z,0.43
2023-03-04T22:07:11.266Z,0.30
2023-03-04T22:09:41.300Z,0.40
2023-03-04T22:12:09.866Z,0.60
2023-03-04T22:14:38.268Z,0.37
2023-03-04T22:17:06.676Z,0.37
2023-03-04T22:19:35.125Z,0.50
2023-03-04T22:22:03.438Z,0.20
2023-03-04T22:24:31.759Z,0.40
2023-03-04T22:27:01.475Z,0.40
2023-03-04T22:29:29.824Z,0.50
2023-03-04T22:31:58.323Z,0.37
2023-03-04T22:34:26.747Z,0.40
2023-03-04T22:36:55.079Z,0.50
2023-03-04T22:39:23.485Z,0.40
2023-03-04T22:41:51.844Z,0.37
2023-03-04T22:44:21.568Z,0.40
2023-03-04T22:46:50.059Z,0.40
2023-03-04T22:49:18.397Z,0.40
2023-03-04T22:51:46.820Z,0.60
2023-03-04T22:54:15.289Z,0.63
2023-03-04T22:56:43.684Z,0.40
2023-03-04T22:59:12.015Z,0.30
2023-03-04T23:01:41.840Z,0.70
2023-03-04T23:04:10.208Z,0.50
2023-03-04T23:06:38.525Z,0.57
2023-03-04T23:09:06.848Z,0.30
2023-03-04T23:11:36.521Z,0.53
2023-03-04T23:14:07.001Z,0.50
2023-03-04T23:16:37.545Z,0.20
2023-03-04T23:19:07.533Z,0.40
2023-03-04T23:21:36.150Z,0.20
2023-03-04T23:24:04.652Z,0.57
2023-03-04T23:26:33.369Z,0.30
2023-03-04T23:29:02.265Z,0.30
2023-03-04T23:31:31.156Z,0.40
2023-03-04T23:33:59.629Z,0.20
2023-03-04T23:36:29.957Z,0.47
2023-03-04T23:38:58.535Z,0.30
2023-03-04T23:41:27.481Z,0.57
2023-03-04T23:43:56.040Z,0.70
2023-03-04T23:46:24.427Z,0.53
2023-03-04T23:48:52.810Z,0.30
2023-03-04T23:51:22.110Z,0.70
2023-03-04T23:53:51.819Z,0.30
2023-03-04T23:56:20.754Z,0.40
2023-03-04T23:58:49.066Z,0.53
